メインページ
METAR-TAF:

METAR-TAF

空港 :

テグシガルパ, ホンジュラス

トンコンティン国際空港

緯度: 14-03N, 経度: 087-13W, 海抜: 994m

現時点の気象観測

当レポートは20分前の23:00(UTC)に作成
の風 12kt
気温 27°C
湿度 62%
気圧 1016 hPa
視程: 6000m
高度2800ftの雲は散在している, 積乱雲.
高度8000ftの千切れ雲あり
激しい雷雨, 雨

METAR: MHTG 272300Z 09012KT 6000 TSRA SCT028CB BKN080 27/19 Q1016 A3000 NOSIG

時間: 17:20 (23:20 UTC)

予報

当レポートは6時間55分前の16:25(UTC)に作成
予報は27日の 18時(UTC)から 28日の 18時(UTC)まで有効
の風 4kt
視程10km以上
高度2800ftの雲は散在している, 塔状積雲.
高度8000ftの雲は散在している
27日の 21時(UTC)から 28日の 01時(UTC)まで一時的に
視程: 6000m
高度2800ftの雲は散在している, 積乱雲.
高度3000ftの雲は散在している, 塔状積雲.
激しい雷雨, 小雨
28日の 01時(UTC)から 28日の 03時(UTC)まで徐々に
視程: 8000m
高度700ftの雲はほとんどない
高度2600ftの千切れ雲あり
28日の 12時(UTC)から 28日の 14時(UTC)まで徐々に
視程10km以上
高度2800ftの雲は散在している

TAF: MHTG 271625Z 2718/2818 17004KT 9999 SCT028TCU SCT080 TX29/2721Z TN19/2812Z TEMPO 2721/2801 6000 -TSRA SCT028CB SCT030TCU BECMG 2801/2803 8000 NSW FEW007 BKN026 BECMG 2812/2814 9999 SCT028

4,000以上の空港の気象観測と天気予報(METAR報とTAF報)

利用可能な観測所は地図上に黄色い丸と赤い丸で示す。

丸の上にカーソルを重ねると観測所名を参照できる。

次にクリックすると気象観測と天気予報を参照できる。

マップの切り替え:黒色「×」印の緑ボタンをクリックして拡大、「-」印の緑ボタンをクリックして縮小、緑色の三角印をクリックして隣りの地図に切り替え


METAR-TAF: